createdAt,value
2017-10-29T00:02:24.038Z,10.70
2017-10-29T00:04:51.908Z,8.70
2017-10-29T00:07:19.674Z,11.43
2017-10-29T00:09:47.523Z,9.93
2017-10-29T00:12:15.502Z,10.37
2017-10-29T00:14:43.375Z,9.60
2017-10-29T00:17:11.320Z,10.63
2017-10-29T00:19:39.884Z,16.53
2017-10-29T00:22:08.180Z,11.80
2017-10-29T00:24:36.046Z,9.30
2017-10-29T00:27:03.913Z,11.03
2017-10-29T00:29:31.803Z,11.60
2017-10-29T00:32:00.567Z,11.20
2017-10-29T00:34:28.566Z,11.13
2017-10-29T00:36:56.917Z,10.10
2017-10-29T00:39:25.728Z,9.83
2017-10-29T00:41:53.627Z,11.90
2017-10-29T00:44:22.461Z,10.13
2017-10-29T00:46:50.326Z,9.73
2017-10-29T00:49:18.212Z,11.40
2017-10-29T00:51:46.064Z,10.70
2017-10-29T00:54:14.070Z,14.20
2017-10-29T00:56:42.807Z,9.43
2017-10-29T00:59:10.598Z,8.03
2017-10-29T01:01:38.630Z,5.67
2017-10-29T01:04:06.722Z,4.10
2017-10-29T01:06:34.520Z,5.50
2017-10-29T01:09:04.048Z,7.10
2017-10-29T01:11:32.577Z,6.83
2017-10-29T01:14:01.075Z,7.10
2017-10-29T01:16:29.852Z,7.50
2017-10-29T01:18:58.118Z,7.70
2017-10-29T01:21:26.123Z,7.53
2017-10-29T01:23:54.059Z,7.43
2017-10-29T01:26:22.134Z,8.00
2017-10-29T01:28:50.020Z,7.67
2017-10-29T01:31:18.085Z,7.90
2017-10-29T01:33:46.082Z,7.73
2017-10-29T01:36:14.645Z,7.70
2017-10-29T01:38:42.506Z,6.57
2017-10-29T01:41:10.453Z,6.60
2017-10-29T01:43:38.609Z,6.00
2017-10-29T01:46:06.414Z,5.80
2017-10-29T01:48:34.258Z,6.27
2017-10-29T01:51:02.250Z,6.27
2017-10-29T01:53:30.397Z,6.80
2017-10-29T01:55:58.699Z,5.07
2017-10-29T01:58:26.644Z,4.20
2017-10-29T02:00:54.623Z,5.50
2017-10-29T02:03:22.583Z,5.30
2017-10-29T02:05:50.465Z,5.97
2017-10-29T02:08:18.545Z,5.00
2017-10-29T02:10:46.405Z,5.53
2017-10-29T02:13:14.367Z,4.33
2017-10-29T02:15:42.322Z,4.47
2017-10-29T02:18:10.099Z,5.00
2017-10-29T02:20:38.059Z,3.30
2017-10-29T02:23:06.046Z,3.23
2017-10-29T02:25:34.023Z,3.60
2017-10-29T02:28:01.885Z,3.30
2017-10-29T02:30:29.845Z,2.40
2017-10-29T02:32:57.797Z,3.20
2017-10-29T02:35:25.575Z,4.90
2017-10-29T02:37:54.267Z,5.63
2017-10-29T02:40:22.728Z,5.50
2017-10-29T02:42:50.592Z,4.83
2017-10-29T02:45:18.488Z,5.97
2017-10-29T02:47:46.353Z,5.70
2017-10-29T02:50:14.332Z,6.20
2017-10-29T02:52:42.269Z,5.90
2017-10-29T02:55:10.743Z,5.90
2017-10-29T02:57:38.612Z,5.67
2017-10-29T03:00:06.371Z,5.47
2017-10-29T03:02:34.342Z,6.90
2017-10-29T03:05:02.420Z,5.60
2017-10-29T03:07:30.223Z,5.50
2017-10-29T03:09:59.272Z,5.43
2017-10-29T03:12:27.165Z,5.57
2017-10-29T03:14:55.029Z,5.27
2017-10-29T03:17:22.907Z,5.27
2017-10-29T03:19:50.842Z,5.57
2017-10-29T03:22:18.729Z,6.63
2017-10-29T03:24:46.704Z,7.20
2017-10-29T03:27:14.560Z,6.60
2017-10-29T03:29:42.436Z,5.60
2017-10-29T03:32:10.305Z,5.80
2017-10-29T03:34:38.258Z,6.07
2017-10-29T03:37:06.044Z,5.53
2017-10-29T03:39:34.021Z,5.53
2017-10-29T03:42:02.976Z,5.37
2017-10-29T03:44:31.783Z,5.83
2017-10-29T03:46:59.631Z,5.10
2017-10-29T03:49:27.614Z,4.93
2017-10-29T03:51:55.972Z,4.70
2017-10-29T03:54:23.947Z,5.70
2017-10-29T03:56:51.811Z,4.97
2017-10-29T03:59:19.700Z,3.60
2017-10-29T04:01:48.033Z,4.27
2017-10-29T04:04:16.039Z,1.70
2017-10-29T04:06:44.198Z,2.23
2017-10-29T04:09:12.084Z,1.83
2017-10-29T04:11:39.945Z,2.00
2017-10-29T04:14:07.915Z,1.97
2017-10-29T04:16:35.707Z,1.60
2017-10-29T04:19:04.855Z,1.07
2017-10-29T04:21:32.626Z,0.90
2017-10-29T04:24:00.507Z,1.20
2017-10-29T04:26:28.460Z,1.40
2017-10-29T04:28:56.242Z,1.20
2017-10-29T04:31:24.101Z,1.30
2017-10-29T04:33:52.161Z,1.93
2017-10-29T04:36:20.023Z,2.10
2017-10-29T04:38:48.096Z,1.80
2017-10-29T04:41:16.169Z,1.80
2017-10-29T04:43:43.926Z,1.57
2017-10-29T04:46:11.754Z,1.27
2017-10-29T04:48:39.767Z,1.40
2017-10-29T04:51:07.738Z,1.97
2017-10-29T04:53:35.482Z,1.50
2017-10-29T04:56:03.684Z,1.93
2017-10-29T04:58:31.869Z,1.80
2017-10-29T05:00:59.628Z,2.13
2017-10-29T05:03:27.393Z,1.87
2017-10-29T05:05:55.271Z,2.20
2017-10-29T05:08:23.945Z,1.93
2017-10-29T05:10:53.392Z,2.37
2017-10-29T05:13:21.260Z,1.73
2017-10-29T05:15:49.278Z,2.10
2017-10-29T05:18:17.159Z,2.40
2017-10-29T05:20:45.090Z,2.50
2017-10-29T05:23:13.298Z,2.20
2017-10-29T05:25:42.092Z,2.00
2017-10-29T05:28:10.267Z,1.67
2017-10-29T05:30:38.258Z,1.70
2017-10-29T05:33:07.222Z,2.33
2017-10-29T05:35:35.312Z,1.97
2017-10-29T05:38:04.813Z,1.63
2017-10-29T05:40:33.586Z,1.40
2017-10-29T05:43:01.657Z,1.30
2017-10-29T05:45:29.542Z,1.93
2017-10-29T05:47:58.317Z,1.43
2017-10-29T05:50:26.463Z,1.20
2017-10-29T05:52:54.362Z,1.30
2017-10-29T05:55:23.243Z,1.90
2017-10-29T05:57:51.188Z,2.17
2017-10-29T06:00:19.080Z,2.73
2017-10-29T06:02:47.138Z,2.40
2017-10-29T06:05:15.103Z,1.67
2017-10-29T06:07:43.042Z,1.67
2017-10-29T06:10:11.135Z,2.00
2017-10-29T06:12:38.946Z,1.50
2017-10-29T06:15:07.689Z,10.30
2017-10-29T06:17:36.186Z,1.87
2017-10-29T06:20:04.264Z,10.90
2017-10-29T06:22:32.132Z,4.13
2017-10-29T06:25:00.177Z,4.17
2017-10-29T06:27:28.556Z,2.23
2017-10-29T06:29:56.392Z,2.93
2017-10-29T06:32:24.220Z,5.33
2017-10-29T06:34:52.988Z,3.20
2017-10-29T06:37:20.960Z,2.50
2017-10-29T06:39:48.906Z,3.30
2017-10-29T06:42:16.979Z,3.37
2017-10-29T06:44:44.950Z,3.67
2017-10-29T06:47:12.743Z,2.80
2017-10-29T06:49:40.603Z,3.33
2017-10-29T06:52:08.519Z,2.50
2017-10-29T06:54:36.432Z,2.73
2017-10-29T06:57:04.711Z,1.97
2017-10-29T06:59:32.675Z,2.13
2017-10-29T07:02:00.629Z,2.93
2017-10-29T07:04:31.103Z,1.90
2017-10-29T07:07:00.720Z,2.20
2017-10-29T07:09:28.743Z,2.17
2017-10-29T07:11:56.603Z,2.17
2017-10-29T07:14:24.668Z,2.60
2017-10-29T07:16:52.743Z,2.40
2017-10-29T07:19:20.612Z,2.70
2017-10-29T07:21:48.682Z,2.83
2017-10-29T07:24:16.574Z,1.93
2017-10-29T07:26:44.517Z,2.30
2017-10-29T07:29:12.403Z,1.83
2017-10-29T07:31:40.978Z,1.33
2017-10-29T07:34:08.852Z,1.90
2017-10-29T07:36:36.698Z,1.60
2017-10-29T07:39:04.676Z,1.63
2017-10-29T07:41:32.585Z,1.80
2017-10-29T07:44:01.429Z,1.00
2017-10-29T07:46:29.415Z,0.80
2017-10-29T07:48:57.361Z,0.90
2017-10-29T07:51:25.143Z,0.90
2017-10-29T07:53:53.116Z,1.00
2017-10-29T07:56:20.899Z,1.30
2017-10-29T07:58:48.700Z,1.20
2017-10-29T08:01:16.521Z,1.40
2017-10-29T08:03:44.375Z,1.50
2017-10-29T08:06:12.346Z,1.40
2017-10-29T08:08:41.187Z,1.70
2017-10-29T08:11:09.064Z,1.90
2017-10-29T08:13:37.168Z,1.23
2017-10-29T08:16:05.051Z,1.07
2017-10-29T08:18:33.751Z,1.47
2017-10-29T08:21:02.396Z,1.60
2017-10-29T08:23:30.289Z,1.20
2017-10-29T08:25:58.252Z,1.10
2017-10-29T08:28:26.197Z,1.60
2017-10-29T08:30:53.965Z,1.20
2017-10-29T08:33:21.738Z,0.90
2017-10-29T08:35:49.722Z,1.20
2017-10-29T08:38:17.969Z,1.20
2017-10-29T08:40:45.792Z,1.43
2017-10-29T08:43:18.720Z,1.20
2017-10-29T08:45:46.721Z,1.57
2017-10-29T08:48:15.697Z,1.20
2017-10-29T08:50:43.570Z,0.90
2017-10-29T08:53:11.641Z,1.07
2017-10-29T08:55:39.502Z,1.10
2017-10-29T08:58:07.428Z,0.80
2017-10-29T09:00:35.315Z,1.10
2017-10-29T09:03:03.329Z,0.90
2017-10-29T09:05:31.179Z,0.93
2017-10-29T09:07:59.053Z,2.30
2017-10-29T09:10:26.823Z,1.80
2017-10-29T09:12:55.710Z,5.57
2017-10-29T09:15:24.462Z,2.13
2017-10-29T09:17:52.344Z,2.13
2017-10-29T09:20:20.327Z,3.70
2017-10-29T09:22:48.470Z,1.50
2017-10-29T09:25:16.555Z,1.37
2017-10-29T09:27:44.526Z,1.73
2017-10-29T09:30:12.383Z,1.40
2017-10-29T09:32:40.167Z,0.90
2017-10-29T09:35:08.249Z,1.17
2017-10-29T09:37:37.110Z,1.37
2017-10-29T09:40:04.973Z,1.90
2017-10-29T09:42:32.775Z,1.40
2017-10-29T09:45:00.566Z,1.83
2017-10-29T09:47:28.466Z,1.60
2017-10-29T09:49:56.492Z,2.03
2017-10-29T09:52:25.230Z,1.47
2017-10-29T09:54:53.352Z,0.90
2017-10-29T09:57:22.127Z,1.60
2017-10-29T09:59:50.798Z,0.90
2017-10-29T10:02:18.626Z,1.10
2017-10-29T10:04:46.644Z,1.33
2017-10-29T10:07:14.573Z,1.20
2017-10-29T10:09:42.759Z,1.10
2017-10-29T10:12:11.069Z,1.10
2017-10-29T10:14:39.823Z,0.90
2017-10-29T10:17:07.804Z,1.20
2017-10-29T10:19:35.855Z,1.60
2017-10-29T10:22:03.830Z,1.90
2017-10-29T10:24:31.895Z,1.27
2017-10-29T10:26:59.965Z,1.10
2017-10-29T10:29:28.108Z,1.10
2017-10-29T10:31:56.054Z,1.80
2017-10-29T10:34:24.690Z,8.20
2017-10-29T10:36:52.662Z,3.70
2017-10-29T10:39:20.732Z,5.30
2017-10-29T10:41:48.700Z,4.17
2017-10-29T10:44:16.759Z,1.60
2017-10-29T10:46:44.845Z,1.50
2017-10-29T10:49:12.736Z,1.17
2017-10-29T10:51:41.525Z,2.17
2017-10-29T10:54:09.668Z,2.07
2017-10-29T10:56:37.845Z,1.70
2017-10-29T10:59:05.924Z,1.93
2017-10-29T11:01:34.089Z,2.47
2017-10-29T11:04:02.471Z,2.13
2017-10-29T11:06:30.487Z,1.67
2017-10-29T11:08:59.333Z,1.30
2017-10-29T11:11:27.397Z,0.87
2017-10-29T11:13:55.480Z,0.90
2017-10-29T11:16:23.473Z,1.20
2017-10-29T11:18:52.222Z,1.40
2017-10-29T11:21:20.236Z,1.40
2017-10-29T11:23:49.097Z,2.50
2017-10-29T11:26:17.259Z,4.50
2017-10-29T11:28:45.431Z,2.20
2017-10-29T11:31:13.521Z,1.40
2017-10-29T11:33:41.474Z,4.73
2017-10-29T11:36:09.442Z,0.97
2017-10-29T11:38:37.616Z,1.30
2017-10-29T11:41:05.703Z,1.70
2017-10-29T11:43:33.653Z,1.87
2017-10-29T11:46:02.343Z,1.30
2017-10-29T11:48:30.408Z,1.13
2017-10-29T11:50:58.378Z,1.00
2017-10-29T11:53:26.452Z,1.23
2017-10-29T11:55:54.426Z,1.97
2017-10-29T11:58:22.390Z,1.80
2017-10-29T12:00:50.368Z,1.90
2017-10-29T12:03:18.465Z,2.30
2017-10-29T12:05:47.523Z,1.53
2017-10-29T12:08:15.489Z,1.10
2017-10-29T12:10:43.715Z,1.50
2017-10-29T12:13:12.558Z,0.80
2017-10-29T12:15:40.632Z,0.80
2017-10-29T12:18:08.716Z,2.33
2017-10-29T12:20:37.419Z,3.87
2017-10-29T12:23:05.461Z,2.30
2017-10-29T12:25:35.859Z,4.63
2017-10-29T12:28:03.954Z,1.67
2017-10-29T12:30:32.063Z,1.10
2017-10-29T12:33:00.817Z,0.80
2017-10-29T12:35:28.711Z,1.17
2017-10-29T12:37:58.525Z,0.70
2017-10-29T12:40:27.382Z,1.30
2017-10-29T12:42:55.347Z,0.93
2017-10-29T12:45:23.726Z,2.63
2017-10-29T12:47:51.802Z,1.23
2017-10-29T12:50:19.809Z,0.80
2017-10-29T12:52:48.558Z,1.87
2017-10-29T12:55:16.635Z,3.30
2017-10-29T12:57:44.803Z,2.03
2017-10-29T13:00:12.670Z,1.33
2017-10-29T13:02:40.644Z,1.20
2017-10-29T13:05:08.816Z,1.40
2017-10-29T13:07:37.087Z,1.40
2017-10-29T13:10:05.271Z,1.80
2017-10-29T13:12:33.230Z,0.90
2017-10-29T13:15:01.302Z,1.37
2017-10-29T13:17:29.288Z,2.17
2017-10-29T13:19:57.349Z,1.90
2017-10-29T13:22:25.627Z,1.43
2017-10-29T13:24:53.635Z,0.63
2017-10-29T13:27:21.925Z,1.10
2017-10-29T13:29:50.039Z,1.13
2017-10-29T13:32:18.171Z,1.50
2017-10-29T13:34:46.121Z,2.80
2017-10-29T13:37:14.872Z,1.20
2017-10-29T13:39:42.939Z,1.20
2017-10-29T13:42:11.013Z,2.00
2017-10-29T13:44:39.080Z,1.17
2017-10-29T13:47:07.250Z,1.30
2017-10-29T13:49:35.435Z,1.10
2017-10-29T13:52:03.436Z,0.90
2017-10-29T13:54:32.214Z,1.67
2017-10-29T13:57:00.723Z,1.10
2017-10-29T13:59:28.921Z,1.23
2017-10-29T14:01:57.022Z,1.33
2017-10-29T14:04:24.922Z,1.20
2017-10-29T14:06:53.783Z,1.00
2017-10-29T14:09:22.491Z,1.10
2017-10-29T14:11:51.265Z,1.20
2017-10-29T14:14:19.210Z,0.90
2017-10-29T14:16:47.284Z,1.10
2017-10-29T14:19:15.184Z,1.03
2017-10-29T14:21:43.937Z,1.43
2017-10-29T14:24:12.004Z,2.30
2017-10-29T14:26:39.974Z,1.40
2017-10-29T14:29:07.947Z,0.90
2017-10-29T14:31:36.528Z,0.90
2017-10-29T14:34:04.541Z,1.00
2017-10-29T14:36:33.415Z,1.07
2017-10-29T14:39:02.407Z,1.50
2017-10-29T14:41:30.659Z,1.60
2017-10-29T14:43:58.934Z,0.97
2017-10-29T14:46:27.218Z,1.20
2017-10-29T14:48:55.297Z,1.50
2017-10-29T14:51:24.279Z,1.67
2017-10-29T14:53:52.555Z,1.13
2017-10-29T14:56:20.621Z,1.47
2017-10-29T14:58:48.696Z,1.83
2017-10-29T15:01:16.765Z,1.73
2017-10-29T15:03:44.941Z,2.40
2017-10-29T15:06:12.999Z,1.70
2017-10-29T15:08:41.081Z,1.70
2017-10-29T15:11:09.462Z,2.13
2017-10-29T15:13:37.528Z,1.20
2017-10-29T15:16:05.756Z,1.53
2017-10-29T15:18:34.697Z,2.17
2017-10-29T15:21:02.773Z,1.77
2017-10-29T15:23:30.789Z,1.20
2017-10-29T15:26:00.040Z,1.37
2017-10-29T15:28:28.162Z,1.30
2017-10-29T15:30:56.281Z,1.30
2017-10-29T15:33:24.251Z,1.20
2017-10-29T15:35:52.220Z,1.20
2017-10-29T15:38:20.117Z,1.03
2017-10-29T15:40:48.059Z,0.80
2017-10-29T15:43:16.066Z,1.10
2017-10-29T15:45:44.708Z,1.27
2017-10-29T15:48:12.750Z,2.30
2017-10-29T15:50:40.851Z,2.33
2017-10-29T15:53:09.024Z,3.37
2017-10-29T15:55:37.814Z,2.20
2017-10-29T15:58:05.720Z,2.00
2017-10-29T16:00:34.569Z,1.60
2017-10-29T16:03:02.558Z,3.10
2017-10-29T16:05:30.609Z,1.60
2017-10-29T16:07:58.579Z,1.63
2017-10-29T16:10:26.650Z,1.30
2017-10-29T16:12:54.720Z,1.37
2017-10-29T16:15:23.731Z,1.57
2017-10-29T16:17:51.822Z,2.20
2017-10-29T16:20:20.572Z,1.30
2017-10-29T16:22:48.539Z,1.47
2017-10-29T16:25:16.524Z,2.20
2017-10-29T16:27:44.482Z,7.63
2017-10-29T16:30:12.653Z,5.57
2017-10-29T16:32:40.537Z,6.33
2017-10-29T16:35:08.522Z,3.53
2017-10-29T16:37:37.584Z,1.60
2017-10-29T16:40:05.655Z,1.53
2017-10-29T16:42:34.649Z,2.00
2017-10-29T16:45:03.435Z,2.20
2017-10-29T16:47:31.658Z,1.80
2017-10-29T16:50:00.403Z,1.63
2017-10-29T16:52:28.554Z,2.37
2017-10-29T16:54:58.381Z,1.93
2017-10-29T16:57:26.562Z,2.57
2017-10-29T16:59:54.465Z,1.70
2017-10-29T17:02:23.415Z,1.93
2017-10-29T17:04:51.394Z,2.80
2017-10-29T17:07:19.456Z,2.07
2017-10-29T17:09:47.548Z,2.40
2017-10-29T17:12:15.519Z,1.73
2017-10-29T17:14:44.394Z,2.10
2017-10-29T17:17:12.668Z,1.40
2017-10-29T17:19:40.630Z,1.70
2017-10-29T17:22:08.703Z,2.00
2017-10-29T17:24:36.669Z,2.53
2017-10-29T17:27:04.745Z,2.23
2017-10-29T17:29:32.663Z,2.50
2017-10-29T17:32:01.234Z,2.13
2017-10-29T17:34:30.613Z,2.33
2017-10-29T17:36:58.456Z,3.00
2017-10-29T17:39:26.268Z,3.20
2017-10-29T17:41:54.922Z,2.33
2017-10-29T17:44:23.107Z,3.30
2017-10-29T17:46:51.263Z,2.90
2017-10-29T17:49:19.374Z,3.00
2017-10-29T17:51:48.201Z,2.90
2017-10-29T17:54:16.113Z,3.40
2017-10-29T17:56:44.057Z,4.00
2017-10-29T17:59:12.021Z,3.63
2017-10-29T18:01:39.927Z,3.40
2017-10-29T18:04:07.857Z,2.87
2017-10-29T18:06:35.829Z,4.00
2017-10-29T18:09:03.823Z,3.60
2017-10-29T18:11:31.865Z,2.53
2017-10-29T18:13:59.847Z,4.20
2017-10-29T18:16:27.826Z,5.40
2017-10-29T18:18:55.874Z,6.80
2017-10-29T18:21:24.017Z,8.60
2017-10-29T18:23:52.042Z,7.10
2017-10-29T18:26:20.393Z,6.90
2017-10-29T18:28:48.484Z,6.20
2017-10-29T18:31:16.459Z,5.87
2017-10-29T18:33:44.507Z,7.23
2017-10-29T18:36:12.498Z,7.00
2017-10-29T18:38:41.222Z,6.20
2017-10-29T18:41:09.358Z,6.27
2017-10-29T18:43:37.324Z,4.40
2017-10-29T18:46:05.521Z,4.73
2017-10-29T18:48:34.728Z,4.57
2017-10-29T18:51:03.701Z,4.70
2017-10-29T18:53:31.768Z,5.67
2017-10-29T18:56:00.586Z,5.37
2017-10-29T18:58:28.599Z,5.57
2017-10-29T19:00:57.285Z,4.40
2017-10-29T19:03:25.157Z,5.17
2017-10-29T19:05:53.342Z,5.57
2017-10-29T19:08:21.353Z,7.17
2017-10-29T19:10:50.409Z,5.20
2017-10-29T19:13:18.686Z,7.03
2017-10-29T19:15:46.849Z,7.27
2017-10-29T19:18:14.853Z,7.80
2017-10-29T19:20:43.738Z,7.17
2017-10-29T19:23:12.485Z,7.97
2017-10-29T19:25:40.392Z,9.70
2017-10-29T19:28:09.283Z,7.80
2017-10-29T19:30:38.278Z,7.13
2017-10-29T19:33:06.800Z,6.27
2017-10-29T19:35:35.198Z,4.73
2017-10-29T19:38:03.497Z,5.80
2017-10-29T19:40:31.355Z,7.03
2017-10-29T19:42:59.420Z,4.73
2017-10-29T19:45:27.481Z,7.60
2017-10-29T19:47:55.560Z,6.63
2017-10-29T19:50:23.930Z,6.20
2017-10-29T19:52:51.942Z,5.53
2017-10-29T19:55:20.809Z,5.80
2017-10-29T19:57:49.989Z,4.37
2017-10-29T20:00:17.965Z,4.37
2017-10-29T20:02:45.952Z,8.20
2017-10-29T20:05:14.165Z,4.37
2017-10-29T20:07:42.354Z,3.70
2017-10-29T20:10:10.599Z,3.53
2017-10-29T20:12:39.550Z,3.57
2017-10-29T20:15:07.916Z,4.03
2017-10-29T20:17:35.809Z,3.63
2017-10-29T20:20:03.756Z,3.73
2017-10-29T20:22:31.732Z,3.70
2017-10-29T20:25:00.109Z,3.60
2017-10-29T20:27:28.176Z,3.40
2017-10-29T20:29:56.250Z,4.03
2017-10-29T20:32:24.146Z,4.27
2017-10-29T20:34:53.001Z,6.47
2017-10-29T20:37:21.187Z,5.27
2017-10-29T20:39:49.142Z,5.17
2017-10-29T20:42:17.070Z,5.10
2017-10-29T20:44:45.214Z,5.33
2017-10-29T20:47:13.305Z,5.40
2017-10-29T20:49:41.421Z,5.90
2017-10-29T20:52:09.602Z,6.70
2017-10-29T20:54:37.683Z,5.63
2017-10-29T20:57:05.786Z,7.20
2017-10-29T20:59:34.689Z,5.27
2017-10-29T21:02:03.658Z,4.67
2017-10-29T21:04:31.700Z,5.20
2017-10-29T21:06:59.770Z,4.90
2017-10-29T21:09:28.560Z,5.13
2017-10-29T21:11:56.714Z,5.27
2017-10-29T21:14:24.631Z,5.33
2017-10-29T21:16:53.490Z,4.00
2017-10-29T21:19:21.484Z,5.43
2017-10-29T21:21:49.638Z,5.33
2017-10-29T21:24:18.258Z,4.60
2017-10-29T21:26:47.217Z,4.33
2017-10-29T21:29:15.285Z,10.13
2017-10-29T21:31:43.163Z,8.87
2017-10-29T21:34:11.035Z,4.63
2017-10-29T21:36:39.187Z,3.93
2017-10-29T21:39:07.153Z,3.43
2017-10-29T21:41:35.327Z,4.10
2017-10-29T21:44:03.115Z,3.87
2017-10-29T21:46:31.072Z,4.77
2017-10-29T21:48:59.332Z,4.77
2017-10-29T21:51:27.230Z,4.40
2017-10-29T21:53:55.022Z,4.37
2017-10-29T21:56:23.860Z,4.10
2017-10-29T21:58:51.744Z,4.30
2017-10-29T22:01:19.646Z,3.97
2017-10-29T22:03:49.304Z,3.97
2017-10-29T22:06:17.189Z,3.50
2017-10-29T22:08:45.047Z,3.33
2017-10-29T22:11:13.805Z,3.67
2017-10-29T22:13:41.577Z,3.37
2017-10-29T22:16:09.654Z,3.23
2017-10-29T22:18:37.743Z,3.20
2017-10-29T22:21:06.512Z,4.57
2017-10-29T22:23:34.496Z,4.03
2017-10-29T22:26:02.677Z,2.97
2017-10-29T22:28:30.726Z,2.90
2017-10-29T22:30:58.697Z,3.10
2017-10-29T22:33:26.481Z,3.27
2017-10-29T22:35:54.350Z,3.10
2017-10-29T22:38:23.189Z,3.50
2017-10-29T22:40:51.514Z,4.10
2017-10-29T22:43:19.292Z,4.90
2017-10-29T22:45:47.339Z,3.80
2017-10-29T22:48:15.108Z,3.30
2017-10-29T22:50:43.015Z,4.83
2017-10-29T22:53:10.956Z,4.70
2017-10-29T22:55:38.896Z,4.57
2017-10-29T22:58:06.770Z,4.73
2017-10-29T23:00:34.835Z,3.63
2017-10-29T23:03:02.639Z,2.70
2017-10-29T23:05:43.364Z,2.53
2017-10-29T23:08:11.264Z,3.87
2017-10-29T23:10:40.748Z,3.20
2017-10-29T23:13:08.559Z,3.63
2017-10-29T23:15:37.200Z,3.90
2017-10-29T23:18:05.162Z,3.83
2017-10-29T23:20:33.124Z,3.90
2017-10-29T23:23:01.152Z,3.30
2017-10-29T23:25:29.880Z,3.00
2017-10-29T23:27:57.764Z,3.57
2017-10-29T23:30:25.830Z,2.60
2017-10-29T23:32:53.804Z,4.90
2017-10-29T23:35:21.671Z,2.93
2017-10-29T23:37:49.539Z,3.13
2017-10-29T23:40:18.441Z,4.60
2017-10-29T23:42:46.276Z,3.47
2017-10-29T23:45:14.142Z,3.13
2017-10-29T23:47:42.215Z,2.90
2017-10-29T23:50:10.183Z,4.17
2017-10-29T23:52:39.173Z,2.93
2017-10-29T23:55:07.044Z,3.30
2017-10-29T23:57:36.805Z,3.77
